Grete Maersk — OYCY2 — position and weather

sailwx.info

Track history (hours):
 
Tides and Currents Weather Stations Pressure Air Temp Water Temp Dewpoint Dewpoint Depression Visibility Wind Speed Wind Dir Waves Ship Positions

Grete Maersk

Last reported at 2014-Oct-13 09:15 UTC. Time now 2014-Oct-21 02:24 UTC.
Position N 01°12' E 103°38'.

MMSI: 218824136.

Date/timePositionNaut miles runAvg speedWind from/ knotsBaromVisibWave heightAir tempDewpointWater temp
2014-Oct-13 09:15N 01°12' E 103°38'812.1
2014-Oct-13 08:33N 01°09' E 103°46'1313.2
2014-Oct-13 07:32N 01°15' E 103°58'1413.7
2014-Oct-13 06:30N 01°17' E 104°12'  
2014-Oct-09 08:05N 22°02' E 113°51'814.7
2014-Oct-09 07:33N 22°10' E 113°50'1313.2
2014-Oct-09 06:33N 22°23' E 113°47'1313.0
2014-Oct-09 05:33N 22°35' E 113°43'2 0.2
2014-Oct-08 21:18N 22°37' E 113°42'1013.5
2014-Oct-08 20:33N 22°27' E 113°45'1212.2
2014-Oct-08 19:33N 22°15' E 113°48'1110.8
2014-Oct-08 18:33N 22°05' E 113°52'1111.0
2014-Oct-08 17:33N 21°54' E 113°51'22315.6
2014-Oct-08 03:18N 23°23' E 117°33'1717.3
2014-Oct-08 02:18N 23°34' E 117°47'1316.9
2014-Oct-08 01:33N 23°42' E 117°58'1717.1
2014-Oct-08 00:34N 23°52' E 118°12'1817.4
2014-Oct-07 23:33N 24°03' E 118°27'2417.7
2014-Oct-07 22:11N 24°18' E 118°49'2817.0
2014-Oct-07 20:33N 24°36' E 119°12'35516.9
2014-Oct-06 23:32N 29°32' E 122°52'5610.9
2014-Oct-06 18:24N 30°27' E 122°45'1315.6
2014-Oct-06 17:33N 30°31' E 122°31'1615.8
2014-Oct-06 16:33N 30°33' E 122°12'9 0.8
2014-Oct-06 05:30N 30°37' E 122°03'1010.5
2014-Oct-06 04:32N 30°34' E 122°14'5 4.6
2014-Oct-06 03:33N 30°33' E 122°19'1514.8
2014-Oct-06 02:33N 30°29' E 122°36'3 0.7
2014-Oct-05 22:31N 30°28' E 122°39'0 0.0
2014-Oct-05 21:19N 30°28' E 122°39'0 0.1
2014-Oct-05 20:31N 30°28' E 122°39'0 0.1
2014-Oct-05 19:07N 30°28' E 122°39'0 0.0
2014-Oct-05 18:13N 30°28' E 122°39'0 0.1
2014-Oct-05 17:31N 30°28' E 122°39'0 0.0
2014-Oct-05 16:25N 30°28' E 122°39'0 0.0
2014-Oct-05 10:31N 30°28' E 122°39'0 0.0
2014-Oct-05 09:13N 30°28' E 122°39'0 0.0
2014-Oct-05 07:07N 30°28' E 122°39'0 0.0
2014-Oct-05 05:31N 30°28' E 122°39'0 0.1
2014-Oct-05 04:31N 30°28' E 122°39'0 0.1
2014-Oct-05 01:25N 30°28' E 122°39'0 0.1
2014-Oct-04 23:19N 30°28' E 122°39'0 0.0
2014-Oct-04 22:06N 30°28' E 122°39'0 0.0
2014-Oct-04 21:34N 30°28' E 122°39'0 0.0
2014-Oct-04 20:33N 30°28' E 122°39'0 0.1
2014-Oct-04 19:33N 30°28' E 122°39'0 0.1
2014-Oct-04 18:33N 30°28' E 122°39'1 0.7
2014-Oct-04 17:33N 30°28' E 122°40'9 9.4
2014-Oct-04 16:33N 30°25' E 122°50'1110.6
2014-Oct-04 15:33N 30°19' E 122°60'20 8.8
2014-Oct-04 13:17N 29°60' E 122°52'27 9.7
2014-Oct-04 10:32N 29°44' E 122°27'10 9.7
2014-Oct-04 09:30N 29°47' E 122°16'1111.4
2014-Oct-04 08:33N 29°55' E 122°08'1312.9
2014-Oct-04 07:33N 29°57' E 121°53'2 2.4
2014-Oct-04 06:31N 29°57' E 121°50'0 0.0
2014-Oct-04 05:31N 29°57' E 121°50'0 0.0
2014-Oct-04 04:31N 29°57' E 121°50'0 0.0
2014-Oct-04 01:25N 29°57' E 121°50'0 0.0
2014-Oct-04 00:13N 29°57' E 121°50'0 0.0
2014-Oct-03 23:25N 29°57' E 121°50'0 0.0
2014-Oct-03 22:31N 29°57' E 121°50'0 0.0
2014-Oct-03 21:28N 29°57' E 121°50'0 0.0
2014-Oct-03 20:31N 29°57' E 121°50'0 0.0
2014-Oct-03 19:19N 29°57' E 121°50'0 0.0
2014-Oct-03 18:31N 29°57' E 121°50'0 0.0
2014-Oct-03 17:31N 29°57' E 121°50'0 0.0
2014-Oct-03 16:31N 29°57' E 121°50'0 0.0
2014-Oct-03 15:19N 29°57' E 121°50'0 0.0
2014-Oct-03 14:25N 29°57' E 121°50'1 0.7
2014-Oct-03 13:33N 29°57' E 121°51'9 9.4
2014-Oct-03 12:33N 29°56' E 122°02'1312.7
2014-Oct-03 11:33N 29°49' E 122°14'8 8.2
2014-Oct-03 10:33N 29°45' E 122°22'1 0.6
2014-Oct-03 09:17N 29°46' E 122°22'  
Track history (hours):
 
Tides and Currents Weather Stations Pressure Air Temp Water Temp Dewpoint Dewpoint Depression Visibility Wind Speed Wind Dir Waves Ship Positions

Grete Maersk

Last reported at 2014-Oct-13 09:15 UTC. Time now 2014-Oct-21 02:24 UTC.
Position N 01°12' E 103°38'.

MMSI: 218824136.

Date/timePositionNaut miles runAvg speedWind from/ knotsBaromVisibWave heightAir tempDewpointWater temp
2014-Oct-13 09:15N 01°12' E 103°38'812.1
2014-Oct-13 08:33N 01°09' E 103°46'1313.2
2014-Oct-13 07:32N 01°15' E 103°58'1413.7
2014-Oct-13 06:30N 01°17' E 104°12'  
2014-Oct-09 08:05N 22°02' E 113°51'814.7
2014-Oct-09 07:33N 22°10' E 113°50'1313.2
2014-Oct-09 06:33N 22°23' E 113°47'1313.0
2014-Oct-09 05:33N 22°35' E 113°43'2 0.2
2014-Oct-08 21:18N 22°37' E 113°42'1013.5
2014-Oct-08 20:33N 22°27' E 113°45'1212.2
2014-Oct-08 19:33N 22°15' E 113°48'1110.8
2014-Oct-08 18:33N 22°05' E 113°52'1111.0
2014-Oct-08 17:33N 21°54' E 113°51'22315.6
2014-Oct-08 03:18N 23°23' E 117°33'1717.3
2014-Oct-08 02:18N 23°34' E 117°47'1316.9
2014-Oct-08 01:33N 23°42' E 117°58'1717.1
2014-Oct-08 00:34N 23°52' E 118°12'1817.4
2014-Oct-07 23:33N 24°03' E 118°27'2417.7
2014-Oct-07 22:11N 24°18' E 118°49'2817.0
2014-Oct-07 20:33N 24°36' E 119°12'35516.9
2014-Oct-06 23:32N 29°32' E 122°52'5610.9
2014-Oct-06 18:24N 30°27' E 122°45'1315.6
2014-Oct-06 17:33N 30°31' E 122°31'1615.8
2014-Oct-06 16:33N 30°33' E 122°12'9 0.8
2014-Oct-06 05:30N 30°37' E 122°03'1010.5
2014-Oct-06 04:32N 30°34' E 122°14'5 4.6
2014-Oct-06 03:33N 30°33' E 122°19'1514.8
2014-Oct-06 02:33N 30°29' E 122°36'3 0.7
2014-Oct-05 22:31N 30°28' E 122°39'0 0.0
2014-Oct-05 21:19N 30°28' E 122°39'0 0.1
2014-Oct-05 20:31N 30°28' E 122°39'0 0.1
2014-Oct-05 19:07N 30°28' E 122°39'0 0.0
2014-Oct-05 18:13N 30°28' E 122°39'0 0.1
2014-Oct-05 17:31N 30°28' E 122°39'0 0.0
2014-Oct-05 16:25N 30°28' E 122°39'0 0.0
2014-Oct-05 10:31N 30°28' E 122°39'0 0.0
2014-Oct-05 09:13N 30°28' E 122°39'0 0.0
2014-Oct-05 07:07N 30°28' E 122°39'0 0.0
2014-Oct-05 05:31N 30°28' E 122°39'0 0.1
2014-Oct-05 04:31N 30°28' E 122°39'0 0.1
2014-Oct-05 01:25N 30°28' E 122°39'0 0.1
2014-Oct-04 23:19N 30°28' E 122°39'0 0.0
2014-Oct-04 22:06N 30°28' E 122°39'0 0.0
2014-Oct-04 21:34N 30°28' E 122°39'0 0.0
2014-Oct-04 20:33N 30°28' E 122°39'0 0.1
2014-Oct-04 19:33N 30°28' E 122°39'0 0.1
2014-Oct-04 18:33N 30°28' E 122°39'1 0.7
2014-Oct-04 17:33N 30°28' E 122°40'9 9.4
2014-Oct-04 16:33N 30°25' E 122°50'1110.6
2014-Oct-04 15:33N 30°19' E 122°60'20 8.8
2014-Oct-04 13:17N 29°60' E 122°52'27 9.7
2014-Oct-04 10:32N 29°44' E 122°27'10 9.7
2014-Oct-04 09:30N 29°47' E 122°16'1111.4
2014-Oct-04 08:33N 29°55' E 122°08'1312.9
2014-Oct-04 07:33N 29°57' E 121°53'2 2.4
2014-Oct-04 06:31N 29°57' E 121°50'0 0.0
2014-Oct-04 05:31N 29°57' E 121°50'0 0.0
2014-Oct-04 04:31N 29°57' E 121°50'0 0.0
2014-Oct-04 01:25N 29°57' E 121°50'0 0.0
2014-Oct-04 00:13N 29°57' E 121°50'0 0.0
2014-Oct-03 23:25N 29°57' E 121°50'0 0.0
2014-Oct-03 22:31N 29°57' E 121°50'0 0.0
2014-Oct-03 21:28N 29°57' E 121°50'0 0.0
2014-Oct-03 20:31N 29°57' E 121°50'0 0.0
2014-Oct-03 19:19N 29°57' E 121°50'0 0.0
2014-Oct-03 18:31N 29°57' E 121°50'0 0.0
2014-Oct-03 17:31N 29°57' E 121°50'0 0.0
2014-Oct-03 16:31N 29°57' E 121°50'0 0.0
2014-Oct-03 15:19N 29°57' E 121°50'0 0.0
2014-Oct-03 14:25N 29°57' E 121°50'1 0.7
2014-Oct-03 13:33N 29°57' E 121°51'9 9.4
2014-Oct-03 12:33N 29°56' E 122°02'1312.7
2014-Oct-03 11:33N 29°49' E 122°14'8 8.2
2014-Oct-03 10:33N 29°45' E 122°22'1 0.6
2014-Oct-03 09:17N 29°46' E 122°22'  

Dump ship's entire track history